Time;durP1;ratioP1;P1;durP2;ratioP2;P2;SDS_P1;SDS_P2;PMS_P1;PMS_P2;Temp;Humidity;BMP_temperature;BMP_pressure;BME280_temperature;BME280_humidity;BME280_pressure;Samples;Min_cycle;Max_cycle;Signal;HPM_P1;HPM_P2
2023/10/01 00:00:36;;;;;;;8.70;5.95;;;;;;;;;;5033597;28;20115;-78
2023/10/01 00:03:05;;;;;;;12.15;6.82;;;;;;;;;;5049037;28;20587;-78
2023/10/01 00:05:30;;;;;;;10.60;6.85;;;;;;;;;;5032758;28;20024;-79
2023/10/01 00:07:56;;;;;;;10.82;6.45;;;;;;;;;;5031712;28;20044;-79
2023/10/01 00:10:22;;;;;;;11.70;6.80;;;;;;;;;;5047054;28;20029;-80
2023/10/01 00:12:50;;;;;;;10.45;6.65;;;;;;;;;;5045997;28;20033;-82
2023/10/01 00:15:18;;;;;;;12.57;6.80;;;;;;;;;;5046089;28;20035;-82
2023/10/01 00:17:45;;;;;;;8.68;6.22;;;;;;;;;;5044673;28;20067;-83
2023/10/01 00:20:20;;;;;;;11.80;7.20;;;;;;;;;;5047603;28;20025;-81
2023/10/01 00:22:46;;;;;;;9.05;6.25;;;;;;;;;;5050722;28;20468;-82
2023/10/01 00:25:12;;;;;;;11.45;6.70;;;;;;;;;;5051879;28;20501;-82
2023/10/01 00:27:39;;;;;;;10.98;7.28;;;;;;;;;;5034655;28;21638;-82
2023/10/01 00:30:09;;;;;;;13.20;7.10;;;;;;;;;;5049720;28;20431;-78
2023/10/01 00:32:34;;;;;;;11.00;6.95;;;;;;;;;;5032310;28;20133;-77
2023/10/01 00:34:59;;;;;;;9.80;6.28;;;;;;;;;;5033665;28;21697;-78
2023/10/01 00:37:25;;;;;;;12.18;7.15;;;;;;;;;;5047927;28;20082;-76
2023/10/01 00:39:56;;;;;;;10.07;6.00;;;;;;;;;;5033045;28;20033;-77
2023/10/01 00:42:25;;;;;;;9.90;6.38;;;;;;;;;;5034734;28;20020;-79
2023/10/01 00:44:51;;;;;;;11.18;6.47;;;;;;;;;;5046387;28;20043;-76
2023/10/01 00:47:18;;;;;;;12.48;6.75;;;;;;;;;;5031434;28;20508;-79
2023/10/01 00:49:46;;;;;;;10.02;6.45;;;;;;;;;;5033408;28;20125;-78
2023/10/01 00:52:13;;;;;;;9.77;6.72;;;;;;;;;;5052150;28;20021;-79
2023/10/01 00:54:38;;;;;;;9.20;6.22;;;;;;;;;;5048617;28;20484;-78
2023/10/01 00:57:04;;;;;;;8.98;6.20;;;;;;;;;;5032565;28;20089;-78
2023/10/01 00:59:32;;;;;;;10.88;6.60;;;;;;;;;;5049980;28;20028;-79
2023/10/01 01:02:05;;;;;;;9.90;6.78;;;;;;;;;;5051378;28;20028;-79
2023/10/01 01:04:36;;;;;;;9.95;6.30;;;;;;;;;;5035846;28;20056;-78
2023/10/01 01:07:14;;;;;;;10.18;6.10;;;;;;;;;;5052483;28;20040;-79
2023/10/01 01:09:41;;;;;;;10.32;6.35;;;;;;;;;;5052136;28;20024;-79
2023/10/01 01:12:07;;;;;;;9.90;6.35;;;;;;;;;;5053808;28;20052;-79
2023/10/01 01:14:33;;;;;;;9.05;5.50;;;;;;;;;;5037356;28;21027;-78
2023/10/01 01:16:59;;;;;;;11.70;6.10;;;;;;;;;;5034463;28;20045;-78
2023/10/01 01:19:25;;;;;;;9.88;5.97;;;;;;;;;;5053458;28;20544;-78
2023/10/01 01:21:50;;;;;;;8.75;5.95;;;;;;;;;;5051472;28;20042;-78
2023/10/01 01:24:16;;;;;;;10.15;5.82;;;;;;;;;;5050943;28;20033;-78
2023/10/01 01:26:43;;;;;;;10.35;6.75;;;;;;;;;;5048075;28;20039;-78
2023/10/01 01:32:06;;;;;;;8.88;5.63;;;;;;;;;;5051262;28;20811;-79
2023/10/01 01:34:35;;;;;;;9.65;5.55;;;;;;;;;;5048475;28;20054;-79
2023/10/01 01:37:07;;;;;;;10.55;6.00;;;;;;;;;;5053091;28;20525;-79
2023/10/01 01:39:51;;;;;;;8.17;5.50;;;;;;;;;;5053855;28;20038;-79
2023/10/01 01:42:19;;;;;;;8.95;5.50;;;;;;;;;;5052650;28;20078;-79
2023/10/01 01:44:47;;;;;;;10.27;6.25;;;;;;;;;;5042136;28;20024;-78
2023/10/01 01:47:16;;;;;;;8.32;5.50;;;;;;;;;;5052220;28;20031;-79
2023/10/01 01:49:43;;;;;;;12.07;6.10;;;;;;;;;;5053692;28;20384;-79
2023/10/01 01:52:12;;;;;;;8.63;5.72;;;;;;;;;;5049567;28;20574;-79
2023/10/01 01:54:42;;;;;;;9.63;5.50;;;;;;;;;;5037636;28;20084;-78
2023/10/01 01:57:14;;;;;;;9.80;5.80;;;;;;;;;;5049475;28;20486;-79
2023/10/01 01:59:41;;;;;;;11.03;6.10;;;;;;;;;;5056553;28;20502;-78
2023/10/01 02:02:09;;;;;;;8.98;5.57;;;;;;;;;;5051461;28;20028;-79
2023/10/01 02:04:35;;;;;;;10.30;6.20;;;;;;;;;;5051514;28;20063;-79
2023/10/01 02:07:00;;;;;;;8.98;5.05;;;;;;;;;;5039207;28;20396;-78
2023/10/01 02:09:26;;;;;;;9.25;5.45;;;;;;;;;;5051254;28;20483;-79
2023/10/01 02:11:54;;;;;;;9.43;5.25;;;;;;;;;;5050461;28;20470;-78
2023/10/01 02:14:31;;;;;;;7.97;5.45;;;;;;;;;;5050345;28;20033;-79
2023/10/01 02:17:16;;;;;;;8.70;5.00;;;;;;;;;;5051678;28;20039;-78
2023/10/01 02:19:49;;;;;;;11.43;5.30;;;;;;;;;;5052749;28;20361;-77
2023/10/01 02:22:16;;;;;;;8.65;5.22;;;;;;;;;;5046224;28;20511;-80
2023/10/01 02:24:45;;;;;;;9.50;5.32;;;;;;;;;;5048229;28;20050;-79
2023/10/01 02:27:16;;;;;;;7.57;4.80;;;;;;;;;;5044575;28;20435;-80
2023/10/01 02:30:24;;;;;;;9.25;4.95;;;;;;;;;;5048376;28;20028;-82
2023/10/01 02:32:31;;;;;;;9.68;4.57;;;;;;;;;;5035235;28;20048;-82
2023/10/01 02:34:59;;;;;;;8.93;4.75;;;;;;;;;;5037815;28;20039;-82
2023/10/01 02:37:35;;;;;;;7.20;4.60;;;;;;;;;;5036063;28;20044;-79
2023/10/01 02:40:12;;;;;;;9.70;5.20;;;;;;;;;;5038513;28;20037;-81
2023/10/01 02:42:38;;;;;;;8.25;4.78;;;;;;;;;;5046372;28;20557;-81
2023/10/01 02:45:30;;;;;;;9.13;4.45;;;;;;;;;;5049342;28;20387;-82
2023/10/01 02:48:13;;;;;;;8.43;4.65;;;;;;;;;;5049139;28;20394;-79
2023/10/01 02:50:36;;;;;;;7.20;4.63;;;;;;;;;;5048786;28;20506;-82
2023/10/01 02:53:03;;;;;;;8.60;4.75;;;;;;;;;;5049911;28;20400;-81
2023/10/01 02:55:28;;;;;;;8.30;4.70;;;;;;;;;;5052669;28;20111;-82
2023/10/01 02:57:53;;;;;;;8.10;4.70;;;;;;;;;;5051646;28;20037;-78
2023/10/01 03:00:30;;;;;;;8.82;4.88;;;;;;;;;;5051232;28;20036;-78
2023/10/01 03:02:58;;;;;;;8.32;4.63;;;;;;;;;;5049047;28;20029;-78
2023/10/01 03:07:51;;;;;;;8.60;4.70;;;;;;;;;;5046662;28;20476;-78
2023/10/01 03:10:26;;;;;;;8.75;4.10;;;;;;;;;;5047669;28;20067;-79
2023/10/01 03:12:59;;;;;;;8.23;4.55;;;;;;;;;;5036314;28;20056;-79
2023/10/01 03:15:28;;;;;;;8.65;4.38;;;;;;;;;;5050724;28;20040;-79
2023/10/01 03:17:57;;;;;;;7.57;4.13;;;;;;;;;;5047757;28;20593;-79
2023/10/01 03:23:10;;;;;;;6.78;3.80;;;;;;;;;;5047608;28;20028;-79
2023/10/01 03:25:41;;;;;;;8.20;3.95;;;;;;;;;;5033941;28;20028;-79
2023/10/01 03:28:26;;;;;;;7.35;4.30;;;;;;;;;;5049732;28;20094;-79
2023/10/01 03:31:06;;;;;;;8.43;4.15;;;;;;;;;;5048104;28;20035;-78
2023/10/01 03:33:33;;;;;;;8.27;3.90;;;;;;;;;;5029175;28;20044;-78
2023/10/01 03:35:58;;;;;;;10.13;4.25;;;;;;;;;;5044021;28;20528;-79
2023/10/01 03:38:27;;;;;;;9.07;4.18;;;;;;;;;;5031727;28;20048;-78
2023/10/01 03:41:07;;;;;;;7.93;3.92;;;;;;;;;;5045390;28;20532;-79
2023/10/01 03:43:35;;;;;;;7.80;4.00;;;;;;;;;;5049706;28;20469;-78
2023/10/01 03:46:26;;;;;;;7.53;4.20;;;;;;;;;;5031284;28;20116;-78
2023/10/01 03:48:58;;;;;;;7.80;4.35;;;;;;;;;;5046561;28;20028;-78
2023/10/01 03:54:14;;;;;;;8.50;4.00;;;;;;;;;;5049601;28;20040;-78
2023/10/01 03:56:45;;;;;;;8.48;3.95;;;;;;;;;;5047277;28;20059;-79
2023/10/01 03:59:16;;;;;;;7.65;3.95;;;;;;;;;;5034476;28;20111;-78
2023/10/01 04:02:00;;;;;;;7.72;3.72;;;;;;;;;;5045654;28;20012;-78
2023/10/01 04:04:56;;;;;;;9.15;4.05;;;;;;;;;;5035161;28;20094;-78
2023/10/01 04:07:18;;;;;;;9.27;4.28;;;;;;;;;;5044795;28;20060;-79
2023/10/01 04:09:47;;;;;;;9.60;4.20;;;;;;;;;;5047306;28;20029;-78
2023/10/01 04:12:19;;;;;;;8.43;4.28;;;;;;;;;;5050560;28;21625;-79
2023/10/01 04:14:48;;;;;;;7.35;3.90;;;;;;;;;;5036980;28;20123;-78
2023/10/01 04:17:17;;;;;;;8.55;4.10;;;;;;;;;;5034092;28;20036;-78
2023/10/01 04:19:49;;;;;;;6.57;3.83;;;;;;;;;;5042896;28;20029;-82
2023/10/01 04:22:15;;;;;;;8.40;4.10;;;;;;;;;;5029633;28;20039;-83
2023/10/01 04:24:42;;;;;;;7.40;3.70;;;;;;;;;;5029255;28;20492;-80
2023/10/01 04:27:23;;;;;;;8.52;4.18;;;;;;;;;;5036213;28;20395;-82
2023/10/01 04:29:57;;;;;;;7.45;3.92;;;;;;;;;;5033419;28;20090;-80
2023/10/01 04:32:29;;;;;;;8.13;3.97;;;;;;;;;;5048548;28;20562;-80
2023/10/01 04:34:59;;;;;;;6.03;3.63;;;;;;;;;;5047538;28;20479;-81
2023/10/01 04:37:36;;;;;;;9.20;4.32;;;;;;;;;;5048625;28;20073;-79
2023/10/01 04:40:05;;;;;;;7.90;4.03;;;;;;;;;;5039980;28;20033;-82
2023/10/01 04:42:31;;;;;;;9.02;4.13;;;;;;;;;;5048957;28;20024;-82
2023/10/01 04:44:56;;;;;;;8.00;4.18;;;;;;;;;;5050550;28;20075;-81
2023/10/01 04:47:40;;;;;;;9.05;4.18;;;;;;;;;;5048137;28;20028;-82
2023/10/01 04:50:06;;;;;;;8.70;4.18;;;;;;;;;;5050299;28;20036;-83
2023/10/01 04:52:32;;;;;;;9.10;4.15;;;;;;;;;;5051939;28;20035;-80
2023/10/01 04:54:58;;;;;;;10.75;4.05;;;;;;;;;;5039183;28;20052;-77
2023/10/01 04:57:25;;;;;;;8.82;4.30;;;;;;;;;;5040518;28;20385;-77
2023/10/01 04:59:59;;;;;;;7.30;3.75;;;;;;;;;;5041339;28;20512;-78
2023/10/01 05:02:24;;;;;;;10.35;4.45;;;;;;;;;;5038545;28;20040;-77
2023/10/01 05:04:51;;;;;;;10.27;3.60;;;;;;;;;;5041357;28;20503;-82
2023/10/01 05:07:16;;;;;;;8.98;4.45;;;;;;;;;;5050647;28;20024;-83
2023/10/01 05:09:43;;;;;;;8.88;3.92;;;;;;;;;;5048064;28;20106;-82
2023/10/01 05:12:11;;;;;;;8.73;4.32;;;;;;;;;;5033920;28;20547;-80
2023/10/01 05:14:56;;;;;;;9.52;4.30;;;;;;;;;;5049700;28;21982;-82
2023/10/01 05:17:21;;;;;;;9.18;4.60;;;;;;;;;;5034174;28;20107;-82
2023/10/01 05:19:47;;;;;;;8.52;4.13;;;;;;;;;;5034140;28;20476;-80
2023/10/01 05:22:12;;;;;;;8.57;4.20;;;;;;;;;;5032260;28;20032;-82
2023/10/01 05:24:40;;;;;;;8.60;4.20;;;;;;;;;;5030032;28;20041;-81
2023/10/01 05:27:18;;;;;;;8.55;4.47;;;;;;;;;;5048242;28;20119;-82
2023/10/01 05:29:45;;;;;;;8.55;4.18;;;;;;;;;;5049789;28;20036;-79
2023/10/01 05:32:13;;;;;;;9.43;4.20;;;;;;;;;;5047805;28;20029;-78
2023/10/01 05:34:42;;;;;;;10.85;4.38;;;;;;;;;;5053298;28;20032;-78
2023/10/01 05:37:08;;;;;;;11.18;4.53;;;;;;;;;;5042654;28;20791;-79
2023/10/01 05:39:55;;;;;;;9.85;4.80;;;;;;;;;;5025909;28;20116;-78
2023/10/01 05:42:22;;;;;;;9.77;4.45;;;;;;;;;;5027597;28;20607;-78
2023/10/01 05:44:50;;;;;;;8.35;4.05;;;;;;;;;;5044812;28;20603;-79
2023/10/01 05:47:16;;;;;;;9.90;4.32;;;;;;;;;;5046418;28;20479;-80
2023/10/01 05:49:49;;;;;;;9.25;4.72;;;;;;;;;;5025808;28;20769;-83
2023/10/01 05:52:17;;;;;;;9.10;4.00;;;;;;;;;;5023398;28;21393;-80
2023/10/01 05:54:50;;;;;;;7.00;3.90;;;;;;;;;;5040164;28;20028;-81
2023/10/01 05:57:16;;;;;;;10.18;4.28;;;;;;;;;;5025204;28;20046;-82
2023/10/01 05:59:42;;;;;;;9.82;4.32;;;;;;;;;;5029779;28;20032;-81
2023/10/01 06:02:07;;;;;;;8.95;4.28;;;;;;;;;;5034540;28;20029;-81
2023/10/01 06:04:32;;;;;;;9.45;4.72;;;;;;;;;;5045417;28;20078;-79
2023/10/01 06:07:02;;;;;;;8.27;4.10;;;;;;;;;;5059007;28;20020;-81
2023/10/01 06:09:33;;;;;;;8.68;4.00;;;;;;;;;;5046444;28;20464;-81
2023/10/01 06:12:04;;;;;;;9.52;4.35;;;;;;;;;;5065063;28;20012;-82
2023/10/01 06:14:38;;;;;;;8.70;4.28;;;;;;;;;;5046152;28;20025;-82
2023/10/01 06:17:05;;;;;;;8.82;4.45;;;;;;;;;;5043320;28;20404;-81
2023/10/01 06:19:34;;;;;;;10.25;4.50;;;;;;;;;;5056475;28;20283;-82
2023/10/01 06:22:22;;;;;;;12.75;5.15;;;;;;;;;;5063063;28;20032;-80
2023/10/01 06:24:47;;;;;;;11.48;4.68;;;;;;;;;;5043330;28;20032;-81
2023/10/01 06:27:17;;;;;;;11.90;5.07;;;;;;;;;;5057411;28;20027;-83
2023/10/01 06:29:49;;;;;;;9.98;4.88;;;;;;;;;;5045671;28;20476;-82
2023/10/01 06:32:23;;;;;;;9.02;4.25;;;;;;;;;;5062653;28;20032;-81
2023/10/01 06:34:51;;;;;;;8.70;4.30;;;;;;;;;;5042439;28;20028;-81
2023/10/01 06:37:19;;;;;;;9.55;4.65;;;;;;;;;;5060124;28;20032;-82
2023/10/01 06:39:46;;;;;;;10.93;5.00;;;;;;;;;;5046273;28;20144;-79
2023/10/01 06:42:18;;;;;;;8.98;4.38;;;;;;;;;;5047200;28;20043;-78
2023/10/01 06:44:44;;;;;;;10.18;4.40;;;;;;;;;;5059959;28;20021;-79
2023/10/01 06:47:16;;;;;;;11.45;4.97;;;;;;;;;;5060048;28;20082;-78
2023/10/01 06:52:41;;;;;;;12.88;4.93;;;;;;;;;;5060721;28;20027;-79
2023/10/01 06:55:07;;;;;;;10.40;4.38;;;;;;;;;;5045946;28;20388;-79
2023/10/01 06:57:33;;;;;;;9.90;4.85;;;;;;;;;;5057812;28;20055;-78
2023/10/01 07:00:13;;;;;;;8.93;4.68;;;;;;;;;;5061164;28;20480;-78
2023/10/01 07:02:40;;;;;;;9.05;4.45;;;;;;;;;;5058156;28;20028;-78
2023/10/01 07:05:06;;;;;;;9.82;4.15;;;;;;;;;;5040622;28;20021;-79
2023/10/01 07:07:35;;;;;;;9.60;4.57;;;;;;;;;;5059217;28;20086;-78
2023/10/01 07:10:10;;;;;;;9.45;4.57;;;;;;;;;;5052353;28;20074;-79
2023/10/01 07:12:36;;;;;;;11.75;5.25;;;;;;;;;;5054982;28;20020;-78
2023/10/01 07:15:02;;;;;;;12.82;5.40;;;;;;;;;;5055357;28;20032;-78
2023/10/01 07:17:28;;;;;;;13.50;5.65;;;;;;;;;;5052673;28;20086;-81
2023/10/01 07:20:00;;;;;;;9.63;5.07;;;;;;;;;;5060233;28;20060;-80
2023/10/01 07:22:30;;;;;;;13.10;5.13;;;;;;;;;;5057818;28;20055;-78
2023/10/01 07:24:57;;;;;;;12.82;5.90;;;;;;;;;;5054542;28;20641;-79
2023/10/01 07:27:23;;;;;;;13.25;5.53;;;;;;;;;;5039801;28;20043;-79
2023/10/01 07:29:54;;;;;;;12.20;5.28;;;;;;;;;;5059178;28;20020;-78
2023/10/01 07:32:20;;;;;;;13.10;5.50;;;;;;;;;;5043999;28;20399;-79
2023/10/01 07:34:48;;;;;;;11.13;5.38;;;;;;;;;;5056477;28;20032;-78
2023/10/01 07:37:26;;;;;;;11.70;5.30;;;;;;;;;;5058009;28;20878;-79
2023/10/01 07:39:59;;;;;;;12.27;5.72;;;;;;;;;;5063229;28;20506;-79
2023/10/01 07:42:28;;;;;;;12.85;5.85;;;;;;;;;;5068913;28;20051;-79
2023/10/01 07:44:56;;;;;;;12.98;5.90;;;;;;;;;;5064087;28;20036;-79
2023/10/01 07:47:28;;;;;;;13.68;5.82;;;;;;;;;;5038365;28;20028;-79
2023/10/01 07:49:57;;;;;;;13.60;5.95;;;;;;;;;;5038842;28;20082;-78
2023/10/01 07:52:23;;;;;;;13.43;6.07;;;;;;;;;;5044977;28;20024;-76
2023/10/01 07:54:49;;;;;;;13.05;6.22;;;;;;;;;;5045555;28;20024;-76
2023/10/01 07:57:27;;;;;;;12.40;6.00;;;;;;;;;;5059293;28;20028;-76
2023/10/01 07:59:54;;;;;;;12.45;6.05;;;;;;;;;;5059664;28;20025;-76
2023/10/01 08:02:21;;;;;;;11.05;5.07;;;;;;;;;;5040237;28;20035;-76
2023/10/01 08:04:57;;;;;;;11.82;6.03;;;;;;;;;;5038015;28;20020;-76
2023/10/01 08:07:30;;;;;;;13.77;5.93;;;;;;;;;;5064251;28;20119;-76
2023/10/01 08:09:57;;;;;;;11.70;5.80;;;;;;;;;;5067106;28;20028;-79
2023/10/01 08:15:15;;;;;;;10.77;5.63;;;;;;;;;;5063133;28;20614;-77
2023/10/01 08:17:43;;;;;;;12.05;5.85;;;;;;;;;;5063469;28;20056;-76
2023/10/01 08:20:21;;;;;;;12.30;6.10;;;;;;;;;;5045868;28;20813;-78
2023/10/01 08:25:42;;;;;;;13.50;5.78;;;;;;;;;;5063836;28;20039;-76
2023/10/01 08:30:38;;;;;;;15.50;6.38;;;;;;;;;;5062181;28;20033;-76
2023/10/01 08:33:18;;;;;;;14.15;5.70;;;;;;;;;;5048706;28;20016;-78
2023/10/01 08:39:19;;;;;;;13.15;6.30;;;;;;;;;;4965683;28;20037;-76
2023/10/01 08:41:34;;;;;;;15.00;6.72;;;;;;;;;;5056601;28;20040;-77
2023/10/01 08:44:09;;;;;;;15.15;6.88;;;;;;;;;;5048551;28;20515;-76
2023/10/01 08:46:39;;;;;;;13.32;6.30;;;;;;;;;;5064137;28;20033;-77
2023/10/01 08:49:23;;;;;;;12.68;5.72;;;;;;;;;;5063401;28;20021;-77
2023/10/01 08:51:52;;;;;;;11.77;5.93;;;;;;;;;;5040496;28;20048;-76
2023/10/01 08:54:24;;;;;;;15.18;6.93;;;;;;;;;;5041869;28;20032;-78
2023/10/01 08:56:52;;;;;;;13.73;6.50;;;;;;;;;;5042178;28;20484;-80
2023/10/01 08:59:25;;;;;;;12.65;6.13;;;;;;;;;;5056642;28;20052;-79
2023/10/01 09:01:55;;;;;;;14.13;5.78;;;;;;;;;;5027236;28;20059;-79
2023/10/01 09:07:11;;;;;;;13.30;6.68;;;;;;;;;;5056784;28;20036;-79
2023/10/01 09:09:54;;;;;;;14.35;6.22;;;;;;;;;;5041106;28;20032;-79
2023/10/01 09:12:19;;;;;;;13.05;6.50;;;;;;;;;;5061635;28;20027;-79
2023/10/01 09:14:48;;;;;;;16.15;6.88;;;;;;;;;;5064555;28;20388;-79
2023/10/01 09:17:27;;;;;;;14.90;6.32;;;;;;;;;;5061039;28;20032;-80
2023/10/01 09:19:52;;;;;;;16.63;6.53;;;;;;;;;;5045893;28;20473;-79
2023/10/01 09:22:40;;;;;;;15.23;6.15;;;;;;;;;;5050169;28;20016;-79
2023/10/01 09:25:25;;;;;;;12.82;6.10;;;;;;;;;;5067103;28;20033;-79
2023/10/01 09:28:04;;;;;;;12.25;5.70;;;;;;;;;;5063885;28;20033;-79
2023/10/01 09:30:35;;;;;;;15.57;6.78;;;;;;;;;;5057606;28;20028;-79
2023/10/01 09:33:14;;;;;;;17.25;6.35;;;;;;;;;;5067871;28;20380;-80
2023/10/01 09:35:42;;;;;;;15.90;6.20;;;;;;;;;;5066873;28;20066;-79
2023/10/01 09:38:12;;;;;;;13.02;6.38;;;;;;;;;;5043879;28;20029;-80
2023/10/01 09:40:42;;;;;;;13.70;6.03;;;;;;;;;;5049375;28;20115;-79
2023/10/01 09:43:18;;;;;;;14.23;6.90;;;;;;;;;;5064695;28;20053;-80
2023/10/01 09:45:46;;;;;;;13.70;6.43;;;;;;;;;;5049994;28;20032;-80
2023/10/01 09:48:29;;;;;;;13.32;5.82;;;;;;;;;;5040966;28;20066;-79
2023/10/01 09:51:03;;;;;;;15.98;7.22;;;;;;;;;;5062266;28;20355;-80
2023/10/01 09:53:36;;;;;;;17.42;6.68;;;;;;;;;;5067240;28;20550;-80
2023/10/01 09:56:04;;;;;;;13.07;6.97;;;;;;;;;;5044276;28;20024;-79
2023/10/01 09:58:31;;;;;;;15.07;6.75;;;;;;;;;;5041514;28;20539;-80
2023/10/01 10:01:01;;;;;;;12.95;5.95;;;;;;;;;;5042957;28;20468;-80
2023/10/01 10:03:36;;;;;;;15.45;6.25;;;;;;;;;;5059280;28;20028;-80
2023/10/01 10:06:09;;;;;;;11.50;6.40;;;;;;;;;;5061654;28;20143;-80
2023/10/01 10:08:34;;;;;;;;;;;;;;;;;;5043872;28;20036;-80
2023/10/01 10:11:07;;;;;;;14.13;6.38;;;;;;;;;;5042349;28;19916;-80
2023/10/01 10:13:45;;;;;;;16.67;5.88;;;;;;;;;;5023435;28;20408;-80
2023/10/01 10:19:23;;;;;;;11.95;5.75;;;;;;;;;;5056957;28;20094;-80
2023/10/01 10:24:35;;;;;;;14.63;5.80;;;;;;;;;;5055680;28;20043;-80
2023/10/01 10:27:09;;;;;;;19.52;5.97;;;;;;;;;;5057531;28;20048;-80
2023/10/01 10:29:46;;;;;;;10.68;5.55;;;;;;;;;;5054523;28;20535;-81
2023/10/01 10:32:14;;;;;;;14.15;6.40;;;;;;;;;;5040861;28;20020;-80
2023/10/01 10:35:04;;;;;;;14.25;6.38;;;;;;;;;;5060614;28;20051;-81
2023/10/01 10:37:43;;;;;;;14.43;6.15;;;;;;;;;;5056085;28;20218;-81
2023/10/01 10:42:39;;;;;;;13.60;5.90;;;;;;;;;;5061259;28;20029;-80
2023/10/01 10:45:42;;;;;;;12.18;5.72;;;;;;;;;;5033823;28;20056;-80
2023/10/01 10:48:03;;;;;;;11.25;6.05;;;;;;;;;;5051545;28;20059;-81
2023/10/01 10:50:48;;;;;;;13.40;6.00;;;;;;;;;;5055068;28;20405;-81
2023/10/01 10:53:21;;;;;;;13.50;6.00;;;;;;;;;;5045571;28;20121;-81
2023/10/01 10:55:55;;;;;;;13.65;6.03;;;;;;;;;;5056803;28;20036;-81
2023/10/01 10:58:28;;;;;;;14.55;6.55;;;;;;;;;;5057948;28;20504;-81
2023/10/01 11:00:55;;;;;;;13.43;6.70;;;;;;;;;;5057840;28;20035;-81
2023/10/01 11:03:40;;;;;;;14.48;6.38;;;;;;;;;;5062953;28;20043;-80
2023/10/01 11:06:15;;;;;;;12.90;6.25;;;;;;;;;;5047605;28;20032;-80
2023/10/01 11:08:49;;;;;;;13.23;6.15;;;;;;;;;;5056344;28;20028;-81
2023/10/01 11:11:22;;;;;;;12.48;5.97;;;;;;;;;;5056373;28;20036;-81
2023/10/01 11:13:48;;;;;;;12.43;5.85;;;;;;;;;;5032505;28;20877;-81
2023/10/01 11:16:15;;;;;;;13.85;5.50;;;;;;;;;;5035487;28;20032;-81
2023/10/01 11:18:50;;;;;;;11.80;5.68;;;;;;;;;;5037433;28;20040;-80
2023/10/01 11:21:31;;;;;;;14.48;5.60;;;;;;;;;;5035656;28;20029;-81
2023/10/01 11:24:00;;;;;;;12.73;5.53;;;;;;;;;;5032528;28;20143;-80
2023/10/01 11:26:26;;;;;;;11.70;5.80;;;;;;;;;;5018406;28;20044;-80
2023/10/01 11:29:01;;;;;;;11.48;4.80;;;;;;;;;;5060347;28;20035;-80
2023/10/01 11:31:31;;;;;;;12.27;5.63;;;;;;;;;;5044979;28;20024;-80
2023/10/01 11:34:06;;;;;;;12.02;4.95;;;;;;;;;;5037346;28;20071;-81
2023/10/01 11:36:36;;;;;;;12.43;5.07;;;;;;;;;;5038829;28;20074;-81
2023/10/01 11:39:03;;;;;;;10.75;5.03;;;;;;;;;;5062945;28;20037;-81
2023/10/01 11:41:41;;;;;;;12.43;5.15;;;;;;;;;;5057765;28;20036;-80
2023/10/01 11:44:09;;;;;;;12.98;5.60;;;;;;;;;;5051850;28;20040;-81
2023/10/01 11:46:39;;;;;;;11.38;4.82;;;;;;;;;;5026589;28;20609;-81
2023/10/01 11:49:10;;;;;;;11.07;5.18;;;;;;;;;;5035062;28;20570;-81
2023/10/01 11:52:01;;;;;;;11.55;5.20;;;;;;;;;;5031968;28;20440;-81
2023/10/01 11:54:43;;;;;;;10.80;4.70;;;;;;;;;;5054534;28;20024;-80
2023/10/01 11:57:22;;;;;;;11.13;4.63;;;;;;;;;;5056541;28;20485;-81
2023/10/01 11:59:58;;;;;;;11.23;5.20;;;;;;;;;;5055646;28;20028;-80
2023/10/01 12:02:32;;;;;;;13.60;5.10;;;;;;;;;;5030011;28;20802;-80
2023/10/01 12:05:02;;;;;;;12.40;5.25;;;;;;;;;;5039665;28;20033;-80
2023/10/01 12:07:32;;;;;;;10.40;4.90;;;;;;;;;;5037879;28;20033;-80
2023/10/01 12:09:59;;;;;;;11.95;5.45;;;;;;;;;;5040249;28;20021;-80
2023/10/01 12:12:28;;;;;;;10.38;4.55;;;;;;;;;;5060313;28;20083;-80
2023/10/01 12:14:57;;;;;;;10.10;4.50;;;;;;;;;;5060755;28;20035;-81
2023/10/01 12:17:28;;;;;;;10.68;5.13;;;;;;;;;;5045906;28;20372;-81
2023/10/01 12:20:00;;;;;;;11.63;5.00;;;;;;;;;;5041751;28;20037;-81
2023/10/01 12:22:28;;;;;;;10.05;4.28;;;;;;;;;;5064865;28;20079;-80
2023/10/01 12:24:59;;;;;;;12.88;4.88;;;;;;;;;;5060189;28;20039;-80
2023/10/01 12:27:37;;;;;;;10.98;4.82;;;;;;;;;;5037531;28;20078;-81
2023/10/01 12:30:10;;;;;;;13.07;5.05;;;;;;;;;;5063908;28;20400;-80
2023/10/01 12:32:47;;;;;;;20.00;4.90;;;;;;;;;;5065170;28;20136;-81
2023/10/01 12:35:27;;;;;;;19.58;5.28;;;;;;;;;;5044087;28;20079;-81
2023/10/01 12:38:05;;;;;;;10.65;4.68;;;;;;;;;;5044644;28;20115;-81
2023/10/01 12:40:34;;;;;;;9.23;4.65;;;;;;;;;;5054524;28;20020;-81
2023/10/01 12:44:14;;;;;;;9.48;4.68;;;;;;;;;;5056532;28;20328;-81
2023/10/01 12:46:00;;;;;;;10.70;4.95;;;;;;;;;;5047716;28;20069;-81
2023/10/01 12:48:25;;;;;;;10.60;4.53;;;;;;;;;;5045132;28;20027;-80
2023/10/01 12:51:00;;;;;;;11.40;4.90;;;;;;;;;;5048860;28;20032;-82
2023/10/01 12:53:27;;;;;;;10.10;4.80;;;;;;;;;;5058849;28;20031;-82
2023/10/01 12:55:52;;;;;;;13.43;5.22;;;;;;;;;;5069989;28;20138;-83
2023/10/01 12:58:22;;;;;;;9.55;5.22;;;;;;;;;;5045604;28;20162;-83
2023/10/01 13:00:53;;;;;;;14.25;5.28;;;;;;;;;;5043093;28;20764;-81
2023/10/01 13:03:22;;;;;;;11.50;5.00;;;;;;;;;;5063778;28;20540;-81
2023/10/01 13:05:50;;;;;;;11.70;5.15;;;;;;;;;;5042195;28;20040;-81
2023/10/01 13:08:27;;;;;;;10.63;5.38;;;;;;;;;;5067007;28;20032;-81
2023/10/01 13:10:54;;;;;;;11.98;5.70;;;;;;;;;;5048066;28;20426;-81
2023/10/01 13:13:20;;;;;;;11.63;5.30;;;;;;;;;;5043495;28;20655;-81
2023/10/01 13:15:51;;;;;;;12.68;5.60;;;;;;;;;;5052808;28;20602;-81
2023/10/01 13:18:18;;;;;;;12.77;6.00;;;;;;;;;;5028143;28;20029;-81
2023/10/01 13:23:16;;;;;;;13.27;5.40;;;;;;;;;;5060521;28;20131;-80
2023/10/01 13:25:47;;;;;;;13.18;6.13;;;;;;;;;;5060637;28;20103;-80
2023/10/01 13:28:19;;;;;;;12.07;5.45;;;;;;;;;;5057615;28;20036;-80
2023/10/01 13:31:03;;;;;;;;;;;;;;;;;;5040096;28;20051;-81
2023/10/01 13:33:53;;;;;;;13.23;5.22;;;;;;;;;;5048575;28;19920;-81
2023/10/01 13:36:23;;;;;;;13.93;5.72;;;;;;;;;;5049921;28;20028;-81
2023/10/01 13:39:13;;;;;;;13.95;5.80;;;;;;;;;;5051266;28;20572;-81
2023/10/01 14:08:45;;;;;;;13.13;5.90;;;;;;;;;;5055767;28;20039;-81
2023/10/01 14:11:11;;;;;;;12.25;5.50;;;;;;;;;;5045180;28;20040;-82
2023/10/01 14:13:37;;;;;;;11.57;5.82;;;;;;;;;;5068438;28;20077;-82
2023/10/01 14:16:22;;;;;;;12.38;5.80;;;;;;;;;;5051914;28;20025;-81
2023/10/01 14:18:55;;;;;;;13.50;6.10;;;;;;;;;;5048000;28;20063;-81
2023/10/01 14:21:25;;;;;;;12.13;6.13;;;;;;;;;;5046063;28;20119;-81
2023/10/01 14:24:21;;;;;;;15.95;6.22;;;;;;;;;;5063842;28;20108;-81
2023/10/01 14:26:43;;;;;;;11.87;6.03;;;;;;;;;;5062219;28;20029;-82
2023/10/01 14:29:09;;;;;;;13.90;6.10;;;;;;;;;;5038246;28;20073;-81
2023/10/01 14:31:50;;;;;;;10.45;5.20;;;;;;;;;;5045343;28;20463;-82
2023/10/01 14:34:20;;;;;;;13.63;5.97;;;;;;;;;;5042905;28;20378;-82
2023/10/01 14:36:47;;;;;;;13.77;5.57;;;;;;;;;;5036303;28;20480;-81
2023/10/01 14:39:13;;;;;;;14.13;5.75;;;;;;;;;;5042534;28;20026;-82
2023/10/01 14:41:43;;;;;;;12.32;5.57;;;;;;;;;;5059882;28;20028;-82
2023/10/01 14:44:14;;;;;;;11.73;5.47;;;;;;;;;;5044136;28;20044;-81
2023/10/01 14:46:51;;;;;;;12.13;5.70;;;;;;;;;;5054527;28;20119;-82
2023/10/01 14:49:22;;;;;;;13.32;5.90;;;;;;;;;;5011984;28;20039;-81
2023/10/01 14:51:54;;;;;;;11.73;5.97;;;;;;;;;;5053386;28;20020;-82
2023/10/01 14:54:20;;;;;;;13.95;6.13;;;;;;;;;;5043850;28;20028;-81
2023/10/01 14:56:54;;;;;;;13.52;5.95;;;;;;;;;;5041002;28;20037;-82
2023/10/01 14:59:21;;;;;;;10.48;5.55;;;;;;;;;;5043862;28;20532;-83
2023/10/01 15:01:46;;;;;;;12.90;5.93;;;;;;;;;;5042901;28;20047;-82
2023/10/01 15:04:20;;;;;;;12.50;5.35;;;;;;;;;;5041904;28;20495;-82
2023/10/01 15:06:57;;;;;;;11.63;5.30;;;;;;;;;;5037861;28;20087;-83
2023/10/01 15:09:31;;;;;;;13.52;6.07;;;;;;;;;;5059476;28;20116;-82
2023/10/01 15:11:57;;;;;;;13.02;5.63;;;;;;;;;;5044610;28;20289;-82
2023/10/01 15:14:27;;;;;;;13.55;6.65;;;;;;;;;;5052004;28;20035;-83
2023/10/01 15:16:56;;;;;;;13.38;5.80;;;;;;;;;;5056515;28;20513;-82
2023/10/01 15:19:25;;;;;;;13.75;6.00;;;;;;;;;;5040235;28;20067;-79
2023/10/01 15:21:52;;;;;;;13.13;5.95;;;;;;;;;;5049578;28;20036;-81
2023/10/01 15:24:20;;;;;;;12.57;5.75;;;;;;;;;;5041389;28;20150;-81
2023/10/01 15:26:47;;;;;;;13.90;6.25;;;;;;;;;;5060693;28;20040;-80
2023/10/01 15:29:12;;;;;;;12.70;6.03;;;;;;;;;;5041451;28;20024;-82
2023/10/01 15:31:38;;;;;;;12.63;6.00;;;;;;;;;;5052685;28;20544;-83
2023/10/01 15:34:15;;;;;;;13.68;6.00;;;;;;;;;;5054973;28;20032;-82
2023/10/01 15:36:41;;;;;;;14.23;6.10;;;;;;;;;;5055075;28;20033;-82
2023/10/01 15:39:14;;;;;;;11.20;5.80;;;;;;;;;;5039124;28;20032;-82
2023/10/01 15:41:41;;;;;;;;;;;;;;;;;;5036745;28;20451;-82
2023/10/01 15:44:08;;;;;;;12.60;5.90;;;;;;;;;;5037518;28;20356;-82
2023/10/01 15:46:40;;;;;;;12.65;6.10;;;;;;;;;;5043031;28;20035;-81
2023/10/01 15:49:20;;;;;;;13.20;6.10;;;;;;;;;;5062290;28;20381;-82
2023/10/01 15:51:47;;;;;;;12.30;6.25;;;;;;;;;;5054109;28;20078;-81
2023/10/01 15:54:22;;;;;;;12.45;6.03;;;;;;;;;;5059414;28;20036;-81
2023/10/01 15:56:56;;;;;;;12.23;5.70;;;;;;;;;;5039220;28;20442;-82
2023/10/01 15:59:22;;;;;;;12.88;6.30;;;;;;;;;;5043501;28;20035;-82
2023/10/01 16:01:52;;;;;;;12.65;6.40;;;;;;;;;;5040213;28;20021;-81
2023/10/01 16:04:21;;;;;;;13.35;6.38;;;;;;;;;;5040361;28;20111;-81